• Join FlightAware (Why Join?)
  • Login
  • US Flag 
08:32AM EST


 

Airport Tracker/Info


-or-


 

Live Flight TrackerFlight Track Log ✈ TGW969 ✈ 19-May-2013 ✈ YBCG / OOL - YMML / MEL

Flight Track Log - Related Links

Times and Time Zones

All times are in EDT time to prevent confusion due to time zone crossing. See the TGW969 flight status page for this flight to view local times or setup timezone preferences in your user account.

Time Position Orientation Groundspeed Altitude Reporting Facility
EDT Latitude Longitude Course Direction KTS MPH feet Rate Location/Type
07:16AM -28.1844 153.5188 154° Southeast 165 190 1,300  Level Aus ATC (RADAR)
07:16AM -28.2068 153.5315 154° Southeast 156 180 2,800 1,860 Climbing Aus ATC (RADAR)
07:17AM -28.2336 153.5419 161° South 159 183 3,600 1,200 Climbing Aus ATC (RADAR)
07:17AM -28.2554 153.5489 164° South 189 217 4,100 -240 Climbing Aus ATC (RADAR)
07:17AM -28.2500 153.5490 222° Southwest 175 201 3,500 1,500 Descending FlightAware
07:18AM -28.2827 153.5202 223° Southwest 230 265 5,000 3,360 Climbing Aus ATC (RADAR)
07:19AM -28.3175 153.4574 238° Southwest 245 282 8,400 3,300 Climbing Aus ATC (RADAR)
07:19AM -28.3346 153.4290 236° Southwest 253 291 9,400 2,400 Climbing Aus ATC (RADAR)
07:20AM -28.3596 153.3886 235° Southwest 264 304 10,800 1,680 Climbing Aus ATC (RADAR)
07:20AM -28.3931 153.3346 235° Southwest 311 358 11,500 1,800 Climbing Aus ATC (RADAR)
07:21AM -28.4203 153.2906 235° Southwest 333 383 12,900 2,760 Climbing Aus ATC (RADAR)
07:22AM -28.4513 153.2400 235° Southwest 332 382 14,500 1,680 Climbing Aus ATC (RADAR)
07:22AM -28.4896 153.1776 235° Southwest 360 414 15,000 1,440 Climbing Aus ATC (RADAR)
07:23AM -28.5191 153.1281 236° Southwest 375 432 16,200 2,280 Climbing Aus ATC (RADAR)
07:23AM -28.5755 153.0644 225° Southwest 382 440 17,900 2,280 Climbing Aus ATC (RADAR)
07:24AM -28.6153 153.0240 222° Southwest 382 440 19,100 2,100 Climbing Aus ATC (RADAR)
07:25AM -28.6618 152.9767 222° Southwest 384 442 20,200 1,800 Climbing Aus ATC (RADAR)
07:25AM -28.7083 152.9287 222° Southwest 386 444 21,200 1,620 Climbing Aus ATC (RADAR)
07:26AM -28.7624 152.8735 222° Southwest 392 451 22,200 1,680 Climbing Aus ATC (RADAR)
07:26AM -28.8093 152.8249 222° Southwest 391 450 23,300 2,220 Climbing Aus ATC (RADAR)
07:27AM -28.8559 152.7770 222° Southwest 385 443 24,800 2,460 Climbing Aus ATC (RADAR)
07:28AM -28.9006 152.7333 221° Southwest 364 419 26,200 1,320 Climbing Aus ATC (RADAR)
07:28AM -28.9457 152.6872 222° Southwest 374 430 26,400 300 Climbing Aus ATC (RADAR)
07:29AM -28.9988 152.6313 223° Southwest 390 449 26,600 900 Climbing Aus ATC (RADAR)
07:29AM -29.0391 152.5889 223° Southwest 393 452 27,500 1,440 Climbing Aus ATC (RADAR)
07:30AM -29.0852 152.5415 222° Southwest 384 442 28,200 480 Climbing Aus ATC (RADAR)
07:31AM -29.1382 152.4876 222° Southwest 383 441 28,100 -120 Descending Aus ATC (RADAR)
07:31AM -29.1778 152.4468 222° Southwest 384 442 28,100  Level Aus ATC (RADAR)
07:32AM -29.2236 152.3987 222° Southwest 384 442 28,100  Level Aus ATC (RADAR)
07:32AM -29.2764 152.3439 222° Southwest 385 443 28,100  Level Aus ATC (RADAR)
07:33AM -29.3156 152.3029 222° Southwest 384 442 28,100  Level Aus ATC (RADAR)
07:34AM -29.3879 152.2277 222° Southwest 384 442 28,100  Level Aus ATC (RADAR)
07:34AM -29.4141 152.2003 222° Southwest 384 442 28,100  Level Aus ATC (RADAR)
07:34AM -29.4403 152.1727 223° Southwest 385 443 28,100  Level Aus ATC (RADAR)
07:35AM -29.4867 152.1251 222° Southwest 385 443 28,100  Level Aus ATC (RADAR)
07:36AM -29.5387 152.0703 222° Southwest 385 443 28,100  Level Aus ATC (RADAR)
07:36AM -29.5780 152.0286 223° Southwest 386 444 28,100  Level Aus ATC (RADAR)
07:37AM -29.6242 151.9805 222° Southwest 385 443 28,100  Level Aus ATC (RADAR)
07:37AM -29.6766 151.9255 222° Southwest 384 442 28,100  Level Aus ATC (RADAR)
07:38AM -29.7228 151.8778 222° Southwest 384 442 28,100  Level Aus ATC (RADAR)
07:39AM -29.7816 151.8159 222° Southwest 383 441 28,100  Level Aus ATC (RADAR)
07:39AM -29.8209 151.7741 223° Southwest 386 444 28,100  Level Aus ATC (RADAR)
07:40AM -29.8670 151.7262 222° Southwest 384 442 28,100 -180 Level Aus ATC (RADAR)
07:40AM -29.8600 151.7310 224° Southwest 385 443 28,000  Descending FlightAware
07:40AM -29.9057 151.6839 224° Southwest 385 443 28,100  Climbing Aus ATC (RADAR)
07:41AM -29.9050 151.6840 224° Southwest 385 443 28,000  Descending FlightAware
07:41AM -29.9585 151.6290 224° Southwest 385 443 28,100  Climbing Aus ATC (RADAR)
07:41AM -29.9500 151.6380 224° Southwest 385 443 28,000  Descending FlightAware
07:42AM -30.0047 151.5799 224° Southwest 389 448 28,100  Climbing Aus ATC (RADAR)
07:42AM -29.9950 151.5910 224° Southwest 385 443 28,000  Descending FlightAware
07:42AM -30.0503 151.5301 224° Southwest 389 448 28,100 300 Climbing Aus ATC (RADAR)
07:43AM -30.0833 151.4956 222° Southwest 387 445 28,200 -240 Climbing Aus ATC (RADAR)
07:43AM -30.0400 151.5440 222° Southwest 385 443 28,000  Descending FlightAware
07:43AM -30.1291 151.4463 222° Southwest 386 444 28,200  Climbing Aus ATC (RADAR)
07:43AM -30.0850 151.4970 222° Southwest 385 443 28,000  Descending FlightAware
07:44AM -30.1945 151.3766 222° Southwest 384 442 28,200 120 Climbing Aus ATC (RADAR)
07:45AM -30.2403 151.3281 222° Southwest 385 443 28,200  Level Aus ATC (RADAR)
07:45AM -30.2796 151.2853 223° Southwest 387 445 28,200  Level Aus ATC (RADAR)
07:46AM -30.3316 151.2301 222° Southwest 383 441 28,200  Level Aus ATC (RADAR)
07:46AM -30.3704 151.1883 223° Southwest 382 440 28,200  Level Aus ATC (RADAR)
07:47AM -30.4162 151.1389 223° Southwest 386 444 28,200  Level Aus ATC (RADAR)
07:47AM -30.4681 151.0839 222° Southwest 383 441 28,200  Level Aus ATC (RADAR)
07:48AM -30.5071 151.0409 223° Southwest 388 447 28,200  Level Aus ATC (RADAR)
07:49AM -30.5659 150.9776 223° Southwest 388 447 28,200  Level Aus ATC (RADAR)
07:49AM -30.6056 150.9348 223° Southwest 391 450 28,200  Level Aus ATC (RADAR)
07:50AM -30.6514 150.8850 223° Southwest 389 448 28,200  Level Aus ATC (RADAR)
07:50AM -30.6906 150.8425 223° Southwest 388 447 28,200  Level Aus ATC (RADAR)
07:51AM -30.7435 150.7849 223° Southwest 391 450 28,200  Level Aus ATC (RADAR)
07:52AM -30.7895 150.7346 223° Southwest 391 450 28,200  Level Aus ATC (RADAR)
07:52AM -30.8424 150.6773 223° Southwest 393 452 28,200  Level Aus ATC (RADAR)
07:53AM -30.8817 150.6349 223° Southwest 390 449 28,200 -360 Level Aus ATC (RADAR)
07:53AM -30.8820 150.6330 223° Southwest 384 442 28,000  Descending FlightAware
07:53AM -30.9277 150.5843 223° Southwest 390 449 28,200  Climbing Aus ATC (RADAR)
07:54AM -30.9480 150.5620 223° Southwest 384 442 28,000  Descending FlightAware
07:54AM -30.9998 150.5054 223° Southwest 389 448 28,200  Climbing Aus ATC (RADAR)
07:54AM -31.0100 150.4930 223° Southwest 383 441 28,000  Descending FlightAware
07:55AM -31.0785 150.4192 223° Southwest 390 449 28,200  Climbing Aus ATC (RADAR)
07:55AM -31.0700 150.4280 223° Southwest 384 442 28,000  Descending FlightAware
07:56AM -31.1246 150.3688 223° Southwest 392 451 28,200  Climbing Aus ATC (RADAR)
07:56AM -31.1310 150.3610 223° Southwest 386 444 28,000 -240 Descending FlightAware
07:57AM -31.1810 150.3060 223° Southwest 386 444 28,000  Level FlightAware
07:57AM -31.2440 150.2370 223° Southwest 386 444 28,000 120 Level FlightAware
07:58AM -31.2957 150.1802 223° Southwest 391 450 28,200  Climbing Aus ATC (RADAR)
07:58AM -31.2970 150.1790 223° Southwest 385 443 28,000  Descending FlightAware
07:59AM -31.3417 150.1295 223° Southwest 391 450 28,200  Climbing Aus ATC (RADAR)
07:59AM -31.3560 150.1130 223° Southwest 385 443 28,000  Descending FlightAware
07:59AM -31.3878 150.0789 223° Southwest 391 450 28,200  Climbing Aus ATC (RADAR)
07:59AM -31.4070 150.0570 223° Southwest 384 442 28,000 -240 Descending FlightAware
08:00AM -31.4590 150.0000 223° Southwest 384 442 28,000  Level FlightAware
08:01AM -31.5120 149.9410 223° Southwest 384 442 28,000 240 Level FlightAware
08:01AM -31.5253 149.9261 223° Southwest 392 451 28,200 300 Climbing Aus ATC (RADAR)
08:01AM -31.5708 149.8757 223° Southwest 388 447 28,200 -360 Level Aus ATC (RADAR)
08:01AM -31.5650 149.8810 223° Southwest 384 442 28,000  Descending FlightAware
08:02AM -31.6146 149.8270 223° Southwest 384 442 28,200  Climbing Aus ATC (RADAR)
08:02AM -31.6180 149.8220 223° Southwest 384 442 28,000  Descending FlightAware
08:03AM -31.6621 149.7741 223° Southwest 387 445 28,200  Climbing Aus ATC (RADAR)
08:03AM -31.6700 149.7650 223° Southwest 383 441 28,000  Descending FlightAware
08:03AM -31.7053 149.7260 223° Southwest 381 438 28,200 180 Climbing Aus ATC (RADAR)
08:04AM -31.7536 149.6718 224° Southwest 393 452 28,200 -360 Level Aus ATC (RADAR)
08:04AM -31.7470 149.6790 224° Southwest 384 442 28,000  Descending FlightAware
08:04AM -31.7969 149.6234 224° Southwest 383 441 28,200  Climbing Aus ATC (RADAR)
08:04AM -31.7960 149.6230 224° Southwest 385 443 28,000  Descending FlightAware
08:05AM -31.8384 149.5760 224° Southwest 392 451 28,200  Climbing Aus ATC (RADAR)
08:05AM -31.8390 149.5740 224° Southwest 385 443 28,000  Descending FlightAware
08:05AM -31.8885 149.5204 224° Southwest 385 443 28,200  Climbing Aus ATC (RADAR)
08:06AM -31.8980 149.5090 224° Southwest 386 444 28,000  Descending FlightAware
08:06AM -31.9342 149.4688 224° Southwest 385 443 28,200  Climbing Aus ATC (RADAR)
08:07AM -31.9640 149.4350 224° Southwest 387 445 28,000  Descending FlightAware
08:07AM -32.0155 149.3770 224° Southwest 394 453 28,200  Climbing Aus ATC (RADAR)
08:07AM -32.0250 149.3660 224° Southwest 388 447 28,000  Descending FlightAware
08:08AM -32.0614 149.3253 224° Southwest 394 453 28,200  Climbing Aus ATC (RADAR)
08:08AM -32.0760 149.3080 224° Southwest 388 447 28,000 -180 Descending FlightAware
08:08AM -32.1048 149.2760 224° Southwest 386 444 28,100  Climbing Aus ATC (RADAR)
08:09AM -32.1370 149.2400 224° Southwest 388 447 28,000 -120 Descending FlightAware
08:09AM -32.1890 149.1800 224° Southwest 390 449 28,000  Level FlightAware
08:10AM -32.2420 149.1200 224° Southwest 390 449 28,000  Level FlightAware
08:11AM -32.3010 149.0550 223° Southwest 400 460 28,000 120 Level FlightAware
08:11AM -32.3567 149.0017 223° Southwest 402 463 28,200  Climbing Aus ATC (RADAR)
08:11AM -32.3600 148.9980 223° Southwest 399 459 28,000  Descending FlightAware
08:12AM -32.4136 148.9462 223° Southwest 401 461 28,200  Climbing Aus ATC (RADAR)
08:12AM -32.4160 148.9440 223° Southwest 400 460 28,000 -240 Descending FlightAware
08:13AM -32.4609 148.8997 223° Southwest 397 457 28,100  Climbing Aus ATC (RADAR)
08:13AM -32.4740 148.8860 223° Southwest 402 463 28,000 120 Descending FlightAware
08:13AM -32.5138 148.8480 223° Southwest 404 465 28,200  Climbing Aus ATC (RADAR)
08:14AM -32.5390 148.8230 223° Southwest 402 463 28,000 -240 Descending FlightAware
08:14AM -32.5970 148.7670 219° Southwest 403 464 28,000 60 Level FlightAware
08:15AM -32.6642 148.7000 219° Southwest 401 461 28,100  Climbing Aus ATC (RADAR)
08:15AM -32.6610 148.7030 219° Southwest 398 458 28,000  Descending FlightAware
08:15AM -32.7123 148.6530 219° Southwest 400 460 28,100  Climbing Aus ATC (RADAR)
08:16AM -32.7250 148.6400 219° Southwest 399 459 28,000  Descending FlightAware
08:16AM -32.7581 148.6076 219° Southwest 406 467 28,100  Climbing Aus ATC (RADAR)
08:16AM -32.7840 148.5820 219° Southwest 399 459 28,000  Descending FlightAware
08:17AM -32.8133 148.5532 219° Southwest 403 464 28,100  Climbing Aus ATC (RADAR)
08:17AM -32.8410 148.5250 219° Southwest 400 460 28,000 -120 Descending FlightAware
08:18AM -32.9070 148.4610 219° Southwest 402 463 28,000 60 Level FlightAware
08:18AM -32.9606 148.4072 219° Southwest 410 472 28,100  Climbing Aus ATC (RADAR)
08:18AM -32.9640 148.4030 219° Southwest 403 464 28,000  Descending FlightAware
08:19AM -33.0115 148.3567 219° Southwest 410 472 28,100  Climbing Aus ATC (RADAR)
08:19AM -33.0220 148.3460 219° Southwest 403 464 28,000  Descending FlightAware
08:20AM -33.0839 148.2843 219° Southwest 409 471 28,100  Climbing Aus ATC (RADAR)
08:20AM -33.0880 148.2800 219° Southwest 404 465 28,000  Descending FlightAware
08:20AM -33.1325 148.2361 219° Southwest 408 470 28,100  Climbing Aus ATC (RADAR)
08:21AM -33.1460 148.2230 219° Southwest 405 466 28,000  Descending FlightAware
08:21AM -33.1795 148.1911 219° Southwest 411 473 28,100  Climbing Aus ATC (RADAR)
08:21AM -33.2140 148.1600 219° Southwest 406 467 28,000 -120 Descending FlightAware
08:22AM -33.2700 148.1090 217° Southwest 407 468 28,000 60 Level FlightAware
08:23AM -33.3386 148.0460 217° Southwest 413 475 28,100  Climbing Aus ATC (RADAR)
08:23AM -33.3430 148.0420 217° Southwest 408 470 28,000 120 Descending FlightAware
08:23AM -33.3967 147.9922 217° Southwest 410 472 28,200  Climbing Aus ATC (RADAR)
08:23AM -33.4020 147.9860 217° Southwest 408 470 28,000 -240 Descending FlightAware
08:24AM -33.4445 147.9476 217° Southwest 414 476 28,100  Climbing Aus ATC (RADAR)
08:24AM -33.4660 147.9270 217° Southwest 408 470 28,000  Descending FlightAware
08:24AM -33.5051 147.8915 217° Southwest 414 476 28,100  Climbing Aus ATC (RADAR)
08:25AM -33.5260 147.8720 217° Southwest 409 471 28,000 60 Descending FlightAware
08:25AM -33.6014 147.8017 217° Southwest 413 475 28,200  Climbing Aus ATC (RADAR)
08:25AM -33.5940 147.8090 217° Southwest 409 471 28,000 -240 Descending FlightAware
08:26AM -33.6490 147.7571 217° Southwest 414 476 28,100  Climbing Aus ATC (RADAR)
08:26AM -33.6620 147.7440 217° Southwest 409 471 28,000 120 Descending FlightAware
08:27AM -33.7074 147.7028 217° Southwest 412 474 28,200  Climbing Aus ATC (RADAR)
08:27AM -33.7230 147.6870 217° Southwest 409 471 28,000 -240 Descending FlightAware
08:27AM -33.7553 147.6578 217° Southwest 417 480 28,100  Climbing Aus ATC (RADAR)
08:28AM -33.7840 147.6300 217° Southwest 411 473 28,000  Descending FlightAware
08:28AM -33.8163 147.6007 217° Southwest 418 481 28,100  Climbing Aus ATC (RADAR)
08:28AM -33.8520 147.5660 217° Southwest 411 473 28,000  Descending FlightAware
08:29AM -33.9149 147.5079 217° Southwest 416 479 28,100  Climbing Aus ATC (RADAR)
08:29AM -33.9120 147.5100 217° Southwest 413 475 28,000 -120 Descending FlightAware
08:30AM -33.9820 147.4440 218° Southwest 413 475 28,000 60 Level FlightAware
08:30AM -34.0524 147.3781 218° Southwest 417 480 28,100  Climbing Aus ATC (RADAR)
08:30AM -34.0440 147.3860 218° Southwest 413 475 28,000  Descending FlightAware
08:31AM -34.0982 147.3348 218° Southwest 418 481 28,100  Climbing Aus ATC (RADAR)
08:31AM -34.1050 147.3280 218° Southwest 413 475 28,000  Descending FlightAware
08:32AM -34.1596 147.2769 218° Southwest 420 483 28,100  Climbing Aus ATC (RADAR)
08:32AM -34.1740 147.2630 218° Southwest 415 478 28,000 180 Descending FlightAware
08:32AM -34.2103 147.2285 218° Southwest 418 481 28,200  Climbing Aus ATC (RADAR)
08:32AM -34.2350 147.2050 218° Southwest 415 478 28,000 -240 Descending FlightAware
08:33AM -34.2960 147.1460 219° Southwest 415 478 28,000 60 Level FlightAware
08:34AM -34.3719 147.0736 219° Southwest 412 474 28,100  Climbing Aus ATC (RADAR)
08:34AM -34.3660 147.0790 219° Southwest 415 478 28,000 -180 Descending FlightAware
08:35AM -34.4260 147.0220 218° Southwest 416 479 28,000 120 Level FlightAware
08:35AM -34.4861 146.9652 218° Southwest 422 486 28,200  Climbing Aus ATC (RADAR)
08:35AM -34.4950 146.9560 218° Southwest 417 480 28,000 -240 Descending FlightAware
08:36AM -34.5327 146.9195 218° Southwest 411 473 28,100  Climbing Aus ATC (RADAR)
08:36AM -34.5570 146.8960 218° Southwest 417 480 28,000 -120 Descending FlightAware
08:37AM -34.6190 146.8370 218° Southwest 418 481 28,000 120 Level FlightAware
08:37AM -34.6928 146.7659 218° Southwest 423 487 28,200  Climbing Aus ATC (RADAR)
08:37AM -34.6860 146.7720 218° Southwest 420 483 28,000 -180 Descending FlightAware
08:38AM -34.7506 146.7118 218° Southwest 431 496 28,100  Climbing Aus ATC (RADAR)
08:38AM -34.7490 146.7110 218° Southwest 420 483 28,000  Descending FlightAware
08:39AM -34.8030 146.6595 218° Southwest 420 483 28,100  Climbing Aus ATC (RADAR)
08:39AM -34.8180 146.6440 218° Southwest 421 484 28,000 -120 Descending FlightAware
08:39AM -34.8810 146.5830 218° Southwest 422 486 28,000 60 Level FlightAware
08:40AM -34.9345 146.5316 218° Southwest 427 491 28,100  Climbing Aus ATC (RADAR)
08:40AM -34.9420 146.5230 218° Southwest 429 494 28,000 180 Descending FlightAware
08:40AM -34.9867 146.4814 218° Southwest 427 491 28,200  Climbing Aus ATC (RADAR)
08:41AM -35.0120 146.4550 218° Southwest 422 486 28,000 -240 Descending FlightAware
08:42AM -35.0760 146.3930 218° Southwest 422 486 28,000 60 Level FlightAware
08:42AM -35.1422 146.3276 218° Southwest 428 493 28,100  Climbing Aus ATC (RADAR)
08:42AM -35.1440 146.3270 218° Southwest 429 494 28,000  Descending FlightAware
08:43AM -35.1879 146.2820 218° Southwest 425 489 28,100  Climbing Aus ATC (RADAR)
08:43AM -35.2020 146.2690 218° Southwest 430 495 28,000  Descending FlightAware
08:43AM -35.2513 146.2218 218° Southwest 430 495 28,100  Climbing Aus ATC (RADAR)
08:44AM -35.2770 146.1960 218° Southwest 430 495 28,000 60 Descending FlightAware
08:45AM -35.3634 146.1121 218° Southwest 419 482 28,200 60 Climbing Aus ATC (RADAR)
08:45AM -35.4047 146.0722 218° Southwest 421 484 28,100  Descending Aus ATC (RADAR)
08:46AM -35.4544 146.0227 219° Southwest 419 482 28,200  Climbing Aus ATC (RADAR)
08:46AM -35.5024 145.9745 219° Southwest 419 482 28,100 -180 Descending Aus ATC (RADAR)
08:47AM -35.5548 145.9213 219° Southwest 419 482 28,000 -120 Descending Aus ATC (RADAR)
08:47AM -35.6081 145.8682 219° Southwest 421 484 28,000  Level Aus ATC (RADAR)
08:48AM -35.6555 145.8239 217° Southwest 423 487 28,000 120 Level Aus ATC (RADAR)
08:48AM -35.7134 145.7644 220° Southwest 428 493 28,200  Climbing Aus ATC (RADAR)
08:49AM -35.7645 145.7188 216° Southwest 418 481 28,000 -180 Descending Aus ATC (RADAR)
08:50AM -35.8563 145.6589 208° Southwest 434 499 28,000  Level Aus ATC (RADAR)
08:50AM -35.9030 145.6285 208° Southwest 444 511 28,000  Level Aus ATC (RADAR)
08:51AM -35.9653 145.5846 210° Southwest 441 507 28,000 180 Level Aus ATC (RADAR)
08:51AM -36.0153 145.5485 210° Southwest 445 512 28,200 60 Climbing Aus ATC (RADAR)
08:52AM -36.0880 145.4993 209° Southwest 448 516 28,100  Descending Aus ATC (RADAR)
08:52AM -36.1420 145.4610 210° Southwest 449 517 28,200  Climbing Aus ATC (RADAR)
08:53AM -36.2147 145.4108 209° Southwest 450 518 28,100 -120 Descending Aus ATC (RADAR)
08:54AM -36.2685 145.3713 211° Southwest 451 519 28,100  Level Aus ATC (RADAR)
08:54AM -36.3322 145.3274 209° Southwest 450 518 28,100  Level Aus ATC (RADAR)
08:55AM -36.4138 145.2703 209° Southwest 450 518 28,100  Level Aus ATC (RADAR)
08:55AM -36.4767 145.2252 210° Southwest 449 517 28,100  Level Aus ATC (RADAR)
08:56AM -36.5305 145.1870 210° Southwest 447 514 28,100 -480 Level Aus ATC (RADAR)
08:57AM -36.6029 145.1363 209° Southwest 450 518 27,600 -1,680 Descending Aus ATC (RADAR)
08:57AM -36.6563 145.0982 210° Southwest 446 513 26,200 -2,940 Descending Aus ATC (RADAR)
08:58AM -36.7090 145.0610 210° Southwest 438 504 24,700 -2,580 Descending Aus ATC (RADAR)
08:58AM -36.7768 145.0126 210° Southwest 423 487 23,200 -2,700 Descending Aus ATC (RADAR)
08:59AM -36.8261 144.9771 210° Southwest 414 476 21,600 -3,000 Descending Aus ATC (RADAR)
08:59AM -36.8836 144.9360 210° Southwest 410 472 20,000 -2,580 Descending Aus ATC (RADAR)
09:01AM -36.9940 144.8573 210° Southwest 387 445 17,100 -2,640 Descending Aus ATC (RADAR)
09:02AM -37.0924 144.7865 210° Southwest 375 432 14,100 -2,700 Descending Aus ATC (RADAR)
09:03AM -37.1933 144.7350 202° Southwest 366 421 11,300 -2,580 Descending Aus ATC (RADAR)
09:04AM -37.2950 144.7586 170° South 366 421 8,800 -2,160 Descending Aus ATC (RADAR)
09:05AM -37.4066 144.7840 170° South 341 392 6,700 -1,200 Descending Aus ATC (RADAR)
09:06AM -37.4888 144.8045 169° South 290 334 6,300 -360 Descending Aus ATC (RADAR)
09:07AM -37.5651 144.8500 155° Southeast 278 320 6,000 -960 Descending Aus ATC (RADAR)
09:08AM -37.5685 144.9488 93° East 282 325 4,300 -1,620 Descending Aus ATC (RADAR)
09:09AM -37.5770 145.0120 93° East 296 341 3,200 -1,680 Descending FlightAware
09:09AM -37.6079 145.0354 93° East 284 327 2,500 -600 Descending Aus ATC (RADAR)
09:10AM -37.6580 145.0220 93° East 191 220 2,500 -240 Level FlightAware
09:11AM -37.6690 144.9590 258° West 144 166 2,100 -540 Descending FlightAware
09:12AM -37.6652 144.9019 258° West 132 152 1,300 -780 Descending Aus ATC (RADAR)
09:12AM -37.6650 144.9020 258° West 130 150 1,200 -720 Descending FlightAware
09:13AM -37.6622 144.8488 258° West 132 152 500 -540 Descending Aus ATC (RADAR)
09:14AM -37.6630 144.8370 258° West 134 154 500  Level FlightAware